Monroe County Airport
KBMG : now visible

Airfield :











YOU CAN JOIN US ON...

 
LOGIN :

Register | Disclaimer

   EN    FR    IT 

 









Legend :    VFR   Marginal VFR   IFR   Intensive IFR   Very Intensive IFR
Visi :
Ceiling :
>= 8 km
>= 3000ft
5 to 8 km
1000 to 3000 ft
1500m to 5 km
500 to 1000 ft
800 to 1500m
200 to 500 ft
< 800m
< 200 ft
Symbols :   Thunderstorms  Fog  Heavy snow  Heavy precipitations  Wind > 20 kt







- Airport Elevation : 846 ft
- IATA code : BMG


KBMG - Monroe County

CURRENT METAR :
  • 191453Z 22008KT 10SM SCT016 SCT022 29/27 A3000 RMK AO2 SLP148 T02940267 50005

EXPIRED METARs :
  • 191445Z 22008KT 10SM SCT016 29/26 A3000 RMK AO2 T02890261
  • 191435Z 23009KT 10SM BKN016 BKN020 29/26 A3000 RMK AO2 T02890261
  • 191428Z 21009KT 10SM SCT015 28/26 A3000 RMK AO2 T02830261
  • 191408Z 24007KT 10SM BKN015 28/26 A3001 RMK AO2 T02830256
  • 191353Z 23009KT 10SM BKN012 BKN018 28/26 A3000 RMK AO2 SLP151 T02780261
  • 191253Z 24004KT 8SM OVC011 27/26 A3000 RMK AO2 SLP148 T02720261

TAF KBMG
Valid from the 19 at 14:00 until the 20 at 12:00 UTC


191408Z 1914/2012 22008KT P6SM BKN012
FM191600 22007KT P6SM SCT250
KZID FIR / North America



MET'MAP, your aeronautical weather chart ! - Copyright ORBIFLY December 2007 - Disclaimer

ORBIFLY MET'MAP TEAM :

Programming & Development : Alexandra Zaïnal
Concept & Development : Baudouin d'Aumeries
Co-Development & Prog : Marc-Olivier Méhu
Technical & hardware support : Manuel Goepfert

Contact : metmap@orbifly.com




SOURCES & CREDITS :

   NOAA       Earth
Advisory